Time;durP1;ratioP1;P1;durP2;ratioP2;P2;SDS_P1;SDS_P2;PMS_P1;PMS_P2;Temp;Humidity;BMP_temperature;BMP_pressure;BME280_temperature;BME280_humidity;BME280_pressure;Samples;Min_cycle;Max_cycle;Signal;HPM_P1;HPM_P2
2022/04/09 00:00:57;;;;;;;0.10;0.10;;;1.60;99.90;;;;;;5011669;28;20494;-62
2022/04/09 00:03:22;;;;;;;0.20;0.20;;;1.60;99.90;;;;;;5012715;28;20113;-62
2022/04/09 00:05:48;;;;;;;0.10;0.10;;;1.70;99.90;;;;;;5012785;28;20037;-62
2022/04/09 00:08:14;;;;;;;0.05;0.05;;;1.60;99.90;;;;;;5012460;28;20041;-60
2022/04/09 00:10:40;;;;;;;0.10;0.10;;;1.50;99.90;;;;;;5011492;28;20033;-62
2022/04/09 00:13:06;;;;;;;0.10;0.10;;;1.50;99.90;;;;;;4995104;28;20112;-62
2022/04/09 00:15:32;;;;;;;0.10;0.10;;;1.50;99.90;;;;;;5011472;28;20462;-63
2022/04/09 00:17:58;;;;;;;0.10;0.10;;;1.60;99.90;;;;;;5012459;28;20026;-62
2022/04/09 00:20:24;;;;;;;0.28;0.28;;;1.70;99.90;;;;;;5011305;28;20026;-62
2022/04/09 00:22:49;;;;;;;0.63;0.50;;;1.80;99.90;;;;;;5012416;28;20425;-62
2022/04/09 00:25:21;;;;;;;0.10;0.10;;;1.90;99.90;;;;;;5012242;28;20069;-62
2022/04/09 00:27:47;;;;;;;;;;;1.90;99.90;;;;;;5012509;28;20046;-63
2022/04/09 00:30:13;;;;;;;0.10;0.10;;;1.90;99.90;;;;;;5010731;28;20357;-62
2022/04/09 00:32:39;;;;;;;0.13;0.13;;;1.90;99.90;;;;;;5011334;28;20048;-62
2022/04/09 00:35:06;;;;;;;0.03;0.03;;;1.80;99.90;;;;;;5012141;28;20041;-62
2022/04/09 00:37:40;;;;;;;0.10;0.10;;;1.80;99.90;;;;;;5011909;28;20107;-62
2022/04/09 00:40:06;;;;;;;0.10;0.10;;;1.80;99.90;;;;;;5010819;28;20478;-62
2022/04/09 00:42:32;;;;;;;0.22;0.22;;;1.80;99.90;;;;;;5012097;28;20038;-62
2022/04/09 00:44:58;;;;;;;0.10;0.10;;;1.80;99.90;;;;;;5010284;28;20026;-62
2022/04/09 00:47:23;;;;;;;0.10;0.10;;;2.00;99.90;;;;;;5011343;28;20168;-62
2022/04/09 00:49:49;;;;;;;0.10;0.10;;;2.10;99.90;;;;;;5010543;28;20030;-62
2022/04/09 00:52:19;;;;;;;0.10;0.10;;;2.20;99.90;;;;;;5010511;28;20030;-62
2022/04/09 00:54:46;;;;;;;0.20;0.20;;;2.10;99.90;;;;;;5024844;23;20120;-61
2022/04/09 00:57:14;;;;;;;0.10;0.10;;;2.10;99.90;;;;;;5002506;28;20037;-61
2022/04/09 00:59:45;;;;;;;0.95;0.63;;;2.00;99.90;;;;;;5013927;28;20025;-61
2022/04/09 01:02:12;;;;;;;0.10;0.10;;;2.10;99.90;;;;;;5014091;28;20116;-61
2022/04/09 01:04:45;;;;;;;0.82;0.82;;;2.10;99.90;;;;;;5014274;28;20029;-61
2022/04/09 01:07:11;;;;;;;0.30;0.30;;;2.10;99.90;;;;;;5030343;28;20485;-61
2022/04/09 01:09:36;;;;;;;0.10;0.10;;;2.10;99.90;;;;;;5022247;28;20037;-60
2022/04/09 01:12:03;;;;;;;0.10;0.10;;;2.10;99.90;;;;;;5043873;28;20040;-61
2022/04/09 01:14:30;;;;;;;0.13;0.13;;;2.10;99.90;;;;;;5033002;28;20032;-61
2022/04/09 01:16:59;;;;;;;0.10;0.10;;;2.10;99.90;;;;;;5014258;28;20022;-61
2022/04/09 01:19:24;;;;;;;0.10;0.10;;;2.10;99.90;;;;;;5030865;28;20029;-61
2022/04/09 01:21:50;;;;;;;0.35;0.35;;;2.00;99.90;;;;;;5029710;28;20499;-61
2022/04/09 01:24:16;;;;;;;2.15;1.13;;;1.90;99.90;;;;;;5032963;28;20021;-61
2022/04/09 01:26:43;;;;;;;0.82;0.82;;;1.80;99.90;;;;;;5050169;28;20028;-61
2022/04/09 01:29:09;;;;;;;1.35;0.82;;;1.70;99.90;;;;;;5033123;28;20064;-60
2022/04/09 01:31:35;;;;;;;0.10;0.10;;;1.70;99.90;;;;;;5050731;28;20037;-60
2022/04/09 01:34:00;;;;;;;0.75;0.75;;;1.70;99.90;;;;;;5050597;28;20025;-60
2022/04/09 01:36:26;;;;;;;0.75;0.75;;;1.70;99.90;;;;;;5050007;28;20029;-61
2022/04/09 01:38:52;;;;;;;0.10;0.10;;;1.60;99.90;;;;;;5050312;28;20028;-61
2022/04/09 01:41:17;;;;;;;0.38;0.38;;;1.60;99.90;;;;;;5042170;28;20028;-61
2022/04/09 01:43:43;;;;;;;0.15;0.15;;;1.60;99.90;;;;;;5030275;28;20053;-60
2022/04/09 01:46:09;;;;;;;0.73;0.73;;;1.60;99.90;;;;;;5030605;28;20542;-61
2022/04/09 01:48:34;;;;;;;0.10;0.10;;;1.60;99.90;;;;;;5029089;28;20051;-60
2022/04/09 01:51:00;;;;;;;0.10;0.10;;;1.70;99.90;;;;;;5030424;28;20045;-60
2022/04/09 01:53:26;;;;;;;0.40;0.40;;;1.70;99.90;;;;;;5030196;28;20041;-60
2022/04/09 01:55:52;;;;;;;0.80;0.80;;;1.70;99.90;;;;;;5030230;28;20040;-61
2022/04/09 01:58:17;;;;;;;0.10;0.10;;;1.80;99.90;;;;;;5029939;28;20100;-61
2022/04/09 02:00:43;;;;;;;0.50;0.50;;;1.90;99.90;;;;;;5030354;28;20465;-60
2022/04/09 02:03:09;;;;;;;0.10;0.10;;;2.00;99.90;;;;;;5030119;28;20151;-61
2022/04/09 02:05:35;;;;;;;0.10;0.10;;;2.00;99.90;;;;;;5029031;28;20029;-61
2022/04/09 02:08:01;;;;;;;0.10;0.10;;;2.10;99.90;;;;;;5030081;28;20037;-61
2022/04/09 02:10:28;;;;;;;0.10;0.10;;;2.20;99.90;;;;;;5030297;28;20041;-61
2022/04/09 02:12:54;;;;;;;1.35;0.85;;;2.20;99.90;;;;;;5028905;28;20488;-61
2022/04/09 02:15:20;;;;;;;0.10;0.10;;;2.20;99.90;;;;;;5037591;28;20041;-61
2022/04/09 02:17:46;;;;;;;0.10;0.10;;;2.30;99.90;;;;;;5049644;28;20017;-61
2022/04/09 02:20:14;;;;;;;0.00;0.00;;;2.30;99.90;;;;;;5031997;28;20025;-61
2022/04/09 02:22:45;;;;;;;0.10;0.10;;;2.30;99.90;;;;;;5035334;28;20024;-60
2022/04/09 02:25:16;;;;;;;0.10;0.10;;;2.40;99.90;;;;;;5054367;28;20384;-61
2022/04/09 02:27:42;;;;;;;0.35;0.35;;;2.30;99.90;;;;;;5036291;28;20162;-61
2022/04/09 02:30:10;;;;;;;0.22;0.22;;;2.40;99.90;;;;;;5054283;28;20453;-61
2022/04/09 02:32:46;;;;;;;1.27;1.17;;;2.40;99.90;;;;;;5036185;28;20032;-61
2022/04/09 02:35:12;;;;;;;0.38;0.38;;;2.40;99.90;;;;;;5054143;28;20463;-61
2022/04/09 02:37:39;;;;;;;0.10;0.10;;;2.30;99.90;;;;;;5035969;28;20075;-61
2022/04/09 02:40:06;;;;;;;0.73;0.73;;;2.30;99.90;;;;;;5036348;28;20040;-61
2022/04/09 02:42:31;;;;;;;0.52;0.52;;;2.40;99.90;;;;;;5035845;28;20472;-61
2022/04/09 02:45:00;;;;;;;0.98;0.63;;;2.40;99.90;;;;;;5035444;28;20037;-61
2022/04/09 02:47:25;;;;;;;0.10;0.10;;;2.40;99.90;;;;;;5036007;28;20031;-61
2022/04/09 02:49:51;;;;;;;0.10;0.10;;;2.40;99.90;;;;;;5053910;28;20024;-61
2022/04/09 02:52:17;;;;;;;0.10;0.10;;;2.50;99.90;;;;;;5054007;28;20392;-61
2022/04/09 02:54:42;;;;;;;1.60;1.50;;;2.60;99.90;;;;;;5041129;28;20035;-62
2022/04/09 02:57:08;;;;;;;0.10;0.10;;;2.80;99.90;;;;;;5031973;28;20032;-61
2022/04/09 02:59:34;;;;;;;0.10;0.10;;;2.90;99.90;;;;;;5031768;28;20440;-62
2022/04/09 03:01:59;;;;;;;0.10;0.10;;;2.90;99.90;;;;;;5032312;28;20037;-62
2022/04/09 03:04:25;;;;;;;0.10;0.10;;;3.00;99.90;;;;;;5032495;28;20025;-62
2022/04/09 03:06:51;;;;;;;0.52;0.52;;;3.10;99.90;;;;;;5031390;28;20064;-62
2022/04/09 03:09:16;;;;;;;0.20;0.20;;;3.00;99.90;;;;;;5031845;28;20033;-62
2022/04/09 03:11:42;;;;;;;0.10;0.10;;;3.10;99.90;;;;;;5032991;28;20033;-61
2022/04/09 03:14:08;;;;;;;0.10;0.10;;;3.10;99.90;;;;;;5032906;28;20103;-62
2022/04/09 03:16:34;;;;;;;0.10;0.10;;;3.10;99.90;;;;;;5051194;28;20478;-62
2022/04/09 03:19:00;;;;;;;0.10;0.10;;;3.10;99.90;;;;;;5053259;28;20040;-62
2022/04/09 03:21:25;;;;;;;0.10;0.10;;;3.10;99.90;;;;;;5053577;28;20512;-62
2022/04/09 03:23:51;;;;;;;0.13;0.13;;;3.10;99.90;;;;;;5053078;28;20040;-62
2022/04/09 03:26:18;;;;;;;0.17;0.17;;;3.10;99.90;;;;;;5052547;28;20025;-62
2022/04/09 03:28:43;;;;;;;0.38;0.28;;;3.10;99.90;;;;;;5052623;28;20329;-62
2022/04/09 03:31:09;;;;;;;0.28;0.17;;;3.10;99.90;;;;;;5053062;28;20029;-62
2022/04/09 03:33:35;;;;;;;0.00;0.00;;;3.10;99.90;;;;;;5033640;28;20062;-62
2022/04/09 03:36:01;;;;;;;0.10;0.10;;;3.10;99.90;;;;;;5034986;28;20021;-62
2022/04/09 03:38:27;;;;;;;0.10;0.10;;;3.30;99.90;;;;;;5034879;28;20029;-62
2022/04/09 03:40:56;;;;;;;0.10;0.10;;;3.20;99.90;;;;;;5052910;28;20036;-61
2022/04/09 03:43:21;;;;;;;0.10;0.10;;;3.20;99.90;;;;;;5052681;28;20025;-62
2022/04/09 03:45:47;;;;;;;0.10;0.10;;;3.20;99.90;;;;;;5034820;28;20025;-62
2022/04/09 03:48:13;;;;;;;0.50;0.50;;;3.20;99.90;;;;;;5052257;28;20452;-62
2022/04/09 03:50:38;;;;;;;0.20;0.20;;;3.30;99.90;;;;;;5035083;28;20032;-62
2022/04/09 03:53:04;;;;;;;0.17;0.17;;;3.20;99.90;;;;;;5052833;28;20041;-62
2022/04/09 03:55:31;;;;;;;0.57;0.43;;;3.20;99.90;;;;;;5052029;28;20404;-62
2022/04/09 03:57:57;;;;;;;0.10;0.10;;;3.20;99.90;;;;;;5052078;28;20107;-61
2022/04/09 04:00:22;;;;;;;0.10;0.10;;;3.30;99.90;;;;;;5034599;28;20121;-61
2022/04/09 04:02:48;;;;;;;0.10;0.10;;;3.30;99.90;;;;;;5052467;28;20054;-62
2022/04/09 04:05:14;;;;;;;0.10;0.10;;;3.30;99.90;;;;;;5052371;28;20040;-62
2022/04/09 04:07:46;;;;;;;0.95;0.95;;;3.20;99.90;;;;;;5052399;28;20040;-61
2022/04/09 04:10:12;;;;;;;0.10;0.10;;;3.20;99.90;;;;;;5034665;28;20041;-62
2022/04/09 04:12:43;;;;;;;2.05;0.65;;;3.10;99.90;;;;;;5052251;28;20083;-62
2022/04/09 04:15:10;;;;;;;0.60;0.60;;;3.00;99.90;;;;;;5045843;28;20026;-62
2022/04/09 04:17:41;;;;;;;0.40;0.40;;;3.10;99.90;;;;;;5030530;28;20061;-62
2022/04/09 04:20:09;;;;;;;0.10;0.10;;;3.10;99.90;;;;;;5030919;28;20025;-62
2022/04/09 04:22:34;;;;;;;0.10;0.10;;;3.20;99.90;;;;;;5031063;28;20040;-61
2022/04/09 04:25:00;;;;;;;0.20;0.20;;;3.20;99.90;;;;;;5030663;28;20037;-61
2022/04/09 04:27:26;;;;;;;0.10;0.10;;;3.30;99.90;;;;;;5032237;28;20037;-61
2022/04/09 04:29:51;;;;;;;0.75;0.75;;;3.30;99.90;;;;;;5031799;28;20033;-62
2022/04/09 04:32:17;;;;;;;0.30;0.30;;;3.20;99.90;;;;;;5031773;28;20029;-62
2022/04/09 04:34:43;;;;;;;0.10;0.10;;;3.20;99.90;;;;;;5031680;28;20033;-62
2022/04/09 04:37:09;;;;;;;0.55;0.55;;;3.20;99.90;;;;;;5031573;28;20446;-61
2022/04/09 04:39:34;;;;;;;1.15;1.08;;;3.30;99.90;;;;;;5030214;28;20039;-62
2022/04/09 04:42:00;;;;;;;0.05;0.05;;;3.20;99.90;;;;;;5031982;28;20094;-62
2022/04/09 04:44:26;;;;;;;0.10;0.10;;;3.20;99.90;;;;;;5031462;28;20083;-62
2022/04/09 04:46:51;;;;;;;0.10;0.10;;;3.00;99.90;;;;;;5031998;28;20099;-61
2022/04/09 04:49:17;;;;;;;0.10;0.10;;;3.00;99.90;;;;;;5031637;28;20063;-62
2022/04/09 04:51:43;;;;;;;0.20;0.20;;;3.10;99.90;;;;;;5031720;28;20393;-62
2022/04/09 04:54:08;;;;;;;0.10;0.10;;;3.00;99.90;;;;;;5031074;28;20033;-62
2022/04/09 04:56:34;;;;;;;0.10;0.10;;;2.90;99.90;;;;;;5030991;28;20215;-61
2022/04/09 04:59:00;;;;;;;0.75;0.75;;;2.80;99.90;;;;;;5031608;28;20029;-62
2022/04/09 05:01:26;;;;;;;0.10;0.10;;;2.80;99.90;;;;;;5031178;28;20030;-61
2022/04/09 05:03:53;;;;;;;3.92;1.05;;;2.70;99.90;;;;;;5030030;28;20481;-61
2022/04/09 05:06:19;;;;;;;0.10;0.10;;;2.50;99.90;;;;;;5030707;28;20037;-62
2022/04/09 05:08:45;;;;;;;0.10;0.10;;;2.40;99.90;;;;;;5029928;28;20473;-62
2022/04/09 05:11:11;;;;;;;0.20;0.20;;;2.40;99.90;;;;;;5031026;28;20116;-61
2022/04/09 05:13:37;;;;;;;0.28;0.28;;;2.40;99.90;;;;;;5031171;28;20029;-61
2022/04/09 05:16:02;;;;;;;3.53;1.65;;;2.50;99.90;;;;;;5044388;28;20033;-61
2022/04/09 05:18:28;;;;;;;0.10;0.10;;;2.70;99.90;;;;;;5032679;28;20103;-61
2022/04/09 05:20:54;;;;;;;0.30;0.30;;;2.70;99.90;;;;;;5051025;28;20393;-61
2022/04/09 05:23:20;;;;;;;0.10;0.10;;;2.70;99.90;;;;;;5032563;28;20029;-61
2022/04/09 05:25:45;;;;;;;0.15;0.15;;;2.70;99.90;;;;;;5032678;28;20025;-61
2022/04/09 05:28:11;;;;;;;0.10;0.10;;;2.80;99.90;;;;;;5047063;28;20032;-61
2022/04/09 05:30:37;;;;;;;0.10;0.10;;;2.80;99.90;;;;;;5026531;28;20029;-61
2022/04/09 05:33:03;;;;;;;0.10;0.10;;;2.90;99.90;;;;;;5035174;28;20029;-62
2022/04/09 05:35:29;;;;;;;3.42;0.70;;;2.80;99.90;;;;;;5030107;28;20034;-61
2022/04/09 05:37:55;;;;;;;1.27;1.17;;;2.70;99.90;;;;;;5030306;28;20143;-62
2022/04/09 05:40:22;;;;;;;0.13;0.13;;;2.50;99.90;;;;;;5030048;28;20113;-61
2022/04/09 05:42:48;;;;;;;0.17;0.17;;;2.30;99.90;;;;;;5029846;28;20017;-62
2022/04/09 05:45:14;;;;;;;0.10;0.10;;;2.10;99.90;;;;;;5033323;28;20040;-62
2022/04/09 05:47:45;;;;;;;0.10;0.10;;;2.00;99.90;;;;;;5049754;28;20028;-61
2022/04/09 05:50:14;;;;;;;0.10;0.10;;;2.00;99.90;;;;;;5032744;28;20051;-62
2022/04/09 05:52:41;;;;;;;1.13;1.02;;;1.80;99.90;;;;;;5032685;28;20052;-62
2022/04/09 05:55:08;;;;;;;0.10;0.10;;;1.80;99.90;;;;;;5031653;28;20033;-62
2022/04/09 05:57:34;;;;;;;0.63;0.63;;;1.80;99.90;;;;;;5049210;28;20036;-62
2022/04/09 06:00:00;;;;;;;0.10;0.10;;;1.80;99.90;;;;;;5032241;28;20076;-62
2022/04/09 06:02:27;;;;;;;0.32;0.32;;;1.80;99.90;;;;;;5020396;28;20017;-62
2022/04/09 06:04:53;;;;;;;0.20;0.20;;;1.70;99.90;;;;;;5049478;28;20025;-62
2022/04/09 06:07:18;;;;;;;0.38;0.38;;;1.60;99.90;;;;;;5031600;28;20033;-62
2022/04/09 06:09:44;;;;;;;0.10;0.10;;;1.80;99.90;;;;;;5032137;28;20033;-62
2022/04/09 06:12:12;;;;;;;0.10;0.10;;;1.70;99.90;;;;;;5050283;28;20106;-62
2022/04/09 06:14:38;;;;;;;0.10;0.10;;;1.80;99.90;;;;;;5050112;28;20025;-62
2022/04/09 06:17:04;;;;;;;6.72;1.85;;;1.80;99.90;;;;;;5050181;28;20461;-62
2022/04/09 06:19:31;;;;;;;0.10;0.10;;;1.90;99.90;;;;;;5050013;28;20025;-62
2022/04/09 06:21:57;;;;;;;0.45;0.25;;;1.90;99.90;;;;;;5032674;28;20037;-62
2022/04/09 06:24:23;;;;;;;1.33;1.17;;;1.90;99.90;;;;;;5015734;28;20394;-62
2022/04/09 06:26:49;;;;;;;0.20;0.20;;;1.90;99.90;;;;;;5031722;28;20469;-62
2022/04/09 06:29:14;;;;;;;0.90;0.90;;;1.90;99.90;;;;;;5031974;28;20041;-62
2022/04/09 06:31:47;;;;;;;0.57;0.57;;;1.90;99.90;;;;;;5049765;28;20047;-62
2022/04/09 06:34:16;;;;;;;0.32;0.32;;;2.00;99.90;;;;;;5049636;28;20036;-62
2022/04/09 06:36:42;;;;;;;0.10;0.10;;;2.10;99.90;;;;;;5031989;28;20036;-62
2022/04/09 06:39:08;;;;;;;4.97;1.52;;;2.00;99.90;;;;;;5049762;28;20396;-62
2022/04/09 06:41:35;;;;;;;0.57;0.57;;;2.10;99.90;;;;;;5049947;28;20094;-62
2022/04/09 06:44:01;;;;;;;0.22;0.22;;;2.30;99.90;;;;;;5050160;28;20029;-62
2022/04/09 06:46:27;;;;;;;0.65;0.57;;;2.30;99.90;;;;;;5049901;28;20033;-62
2022/04/09 06:48:52;;;;;;;1.95;1.38;;;2.40;99.90;;;;;;5031394;28;20330;-62
2022/04/09 06:51:18;;;;;;;0.50;0.50;;;2.50;99.90;;;;;;5049566;28;20384;-62
2022/04/09 06:53:44;;;;;;;0.10;0.10;;;2.60;99.90;;;;;;5031213;28;20071;-62
2022/04/09 06:56:13;;;;;;;0.10;0.10;;;2.80;99.90;;;;;;5015167;28;20037;-62
2022/04/09 06:58:39;;;;;;;0.35;0.35;;;2.90;99.90;;;;;;5049443;28;20036;-63
2022/04/09 07:01:05;;;;;;;3.50;0.75;;;2.90;99.90;;;;;;5049676;28;20029;-65
2022/04/09 07:03:31;;;;;;;0.63;0.63;;;3.00;99.90;;;;;;5033804;28;20184;-64
2022/04/09 07:05:57;;;;;;;0.90;0.68;;;2.90;99.90;;;;;;5029413;28;20128;-61
2022/04/09 07:08:22;;;;;;;2.22;2.13;;;3.00;99.90;;;;;;5042398;28;20037;-62
2022/04/09 07:10:48;;;;;;;0.00;0.00;;;3.00;99.90;;;;;;5041212;28;20679;-64
2022/04/09 07:13:14;;;;;;;0.10;0.10;;;2.90;99.90;;;;;;5031768;28;20034;-63
2022/04/09 07:15:40;;;;;;;0.85;0.85;;;2.80;99.90;;;;;;5031410;28;20037;-62
2022/04/09 07:18:06;;;;;;;0.10;0.10;;;2.70;99.90;;;;;;5032429;28;20393;-62
2022/04/09 07:20:35;;;;;;;6.88;2.30;;;2.80;99.90;;;;;;5032434;28;20385;-62
2022/04/09 07:23:02;;;;;;;0.08;0.08;;;2.90;99.90;;;;;;5032997;28;20037;-62
2022/04/09 07:25:29;;;;;;;17.42;2.83;;;3.00;99.90;;;;;;5032537;28;20035;-62
2022/04/09 07:27:55;;;;;;;0.82;0.73;;;3.10;99.90;;;;;;5032489;28;20144;-63
2022/04/09 07:30:22;;;;;;;9.52;2.40;;;3.10;99.90;;;;;;5032617;28;20493;-62
2022/04/09 07:32:49;;;;;;;0.10;0.10;;;3.20;99.90;;;;;;5025199;28;20035;-63
2022/04/09 07:35:15;;;;;;;0.10;0.10;;;3.30;99.90;;;;;;5031973;28;20497;-63
2022/04/09 07:37:47;;;;;;;0.17;0.17;;;3.40;99.90;;;;;;5037134;28;20155;-63
2022/04/09 07:40:15;;;;;;;0.52;0.52;;;3.50;99.90;;;;;;5032261;28;20389;-63
2022/04/09 07:42:44;;;;;;;0.30;0.30;;;3.60;99.90;;;;;;5032826;28;20029;-61
2022/04/09 07:45:11;;;;;;;0.57;0.57;;;3.80;99.90;;;;;;5030704;28;20057;-63
2022/04/09 07:47:37;;;;;;;0.22;0.22;;;3.80;99.90;;;;;;5032333;28;20064;-62
2022/04/09 07:50:06;;;;;;;0.10;0.10;;;3.90;99.90;;;;;;5032581;28;20040;-61
2022/04/09 07:52:34;;;;;;;0.10;0.10;;;4.10;99.90;;;;;;5032572;28;20033;-63
2022/04/09 07:55:00;;;;;;;0.30;0.30;;;4.10;99.90;;;;;;5041609;28;20037;-63
2022/04/09 07:57:27;;;;;;;0.25;0.25;;;4.10;99.90;;;;;;5052146;28;20104;-63
2022/04/09 07:59:55;;;;;;;0.10;0.10;;;4.10;99.90;;;;;;5034714;28;20032;-62
2022/04/09 08:02:22;;;;;;;0.75;0.73;;;4.10;99.90;;;;;;5023797;28;20060;-62
2022/04/09 08:04:48;;;;;;;0.20;0.20;;;4.20;99.90;;;;;;5042540;28;20071;-62
2022/04/09 08:07:14;;;;;;;0.10;0.10;;;4.20;99.90;;;;;;5015794;28;20113;-65
2022/04/09 08:09:40;;;;;;;0.10;0.10;;;4.20;99.90;;;;;;5012204;28;20117;-62
2022/04/09 08:12:07;;;;;;;0.43;0.43;;;4.20;99.90;;;;;;4978442;28;20030;-62
2022/04/09 08:14:33;;;;;;;0.10;0.10;;;4.40;99.90;;;;;;5011880;28;20061;-62
2022/04/09 08:16:59;;;;;;;0.30;0.30;;;4.50;99.90;;;;;;5012111;28;20033;-63
2022/04/09 08:19:25;;;;;;;0.45;0.43;;;4.50;99.90;;;;;;5011681;28;20030;-62
2022/04/09 08:21:52;;;;;;;0.70;0.70;;;4.50;99.90;;;;;;4994774;28;20028;-63
2022/04/09 08:24:17;;;;;;;0.03;0.03;;;4.50;99.90;;;;;;5011871;28;20029;-62
2022/04/09 08:26:43;;;;;;;0.10;0.10;;;4.50;99.90;;;;;;5011435;28;20030;-62
2022/04/09 08:29:10;;;;;;;0.20;0.20;;;4.60;99.90;;;;;;5011946;28;20112;-63
2022/04/09 08:31:36;;;;;;;0.10;0.10;;;4.50;99.90;;;;;;5011801;28;20026;-63
2022/04/09 08:34:02;;;;;;;0.10;0.10;;;4.70;99.90;;;;;;5031471;28;20030;-62
2022/04/09 08:36:27;;;;;;;0.20;0.20;;;4.70;99.90;;;;;;5030255;28;20112;-62
2022/04/09 08:38:55;;;;;;;0.25;0.25;;;4.90;99.90;;;;;;5013682;28;20032;-62
2022/04/09 08:41:22;;;;;;;0.08;0.08;;;4.90;99.90;;;;;;5031449;28;20026;-62
2022/04/09 08:43:48;;;;;;;14.45;2.45;;;5.00;99.90;;;;;;5014204;28;20048;-62
2022/04/09 08:46:13;;;;;;;0.10;0.10;;;5.00;99.90;;;;;;5031360;28;20674;-62
2022/04/09 08:48:45;;;;;;;0.10;0.10;;;5.10;99.90;;;;;;5031459;28;20029;-62
2022/04/09 08:51:14;;;;;;;7.03;1.95;;;5.10;99.90;;;;;;5013886;28;20025;-62
2022/04/09 08:53:42;;;;;;;0.00;0.00;;;5.20;99.90;;;;;;5031233;28;20128;-62
2022/04/09 08:56:10;;;;;;;0.20;0.20;;;5.30;99.90;;;;;;5030842;28;20480;-63
2022/04/09 08:58:36;;;;;;;0.10;0.10;;;5.40;99.90;;;;;;5013467;28;20108;-62
2022/04/09 09:01:02;;;;;;;0.00;0.00;;;5.50;99.90;;;;;;5025888;28;20101;-62
2022/04/09 09:03:28;;;;;;;0.00;0.00;;;5.60;99.90;;;;;;5039179;28;20021;-62
2022/04/09 09:05:54;;;;;;;2.28;1.55;;;5.70;99.90;;;;;;5033187;28;20060;-62
2022/04/09 09:08:43;;;;;;;0.00;0.00;;;5.60;99.90;;;;;;5024453;28;20031;-62
2022/04/09 09:11:08;;;;;;;0.70;0.70;;;5.60;99.90;;;;;;5050612;28;20468;-62
2022/04/09 09:13:51;;;;;;;0.03;0.03;;;5.70;99.90;;;;;;5045297;28;20063;-62
2022/04/09 09:16:29;;;;;;;0.10;0.10;;;5.80;99.90;;;;;;5019125;28;20040;-62
2022/04/09 09:19:05;;;;;;;0.10;0.10;;;5.90;99.90;;;;;;5012569;28;20520;-62
2022/04/09 09:21:32;;;;;;;0.00;0.00;;;6.10;99.90;;;;;;5030281;28;20030;-62
2022/04/09 09:24:24;;;;;;;0.55;0.38;;;6.30;99.90;;;;;;5030666;28;20037;-62
2022/04/09 09:27:01;;;;;;;0.15;0.15;;;6.30;99.90;;;;;;5010390;28;20110;-62
2022/04/09 09:29:29;;;;;;;1.30;0.98;;;6.40;99.90;;;;;;5012658;28;20121;-62
2022/04/09 09:31:58;;;;;;;0.30;0.30;;;6.40;99.90;;;;;;5029580;28;20497;-62
2022/04/09 09:34:24;;;;;;;0.40;0.40;;;6.50;99.90;;;;;;5030431;28;20124;-62
2022/04/09 09:36:51;;;;;;;0.00;0.00;;;6.70;99.90;;;;;;5012429;28;20037;-62
2022/04/09 09:39:23;;;;;;;1.10;1.10;;;6.60;99.90;;;;;;5030073;28;20030;-62
2022/04/09 09:41:57;;;;;;;0.13;0.13;;;6.50;99.90;;;;;;5030069;28;20104;-62
2022/04/09 09:44:25;;;;;;;8.27;0.85;;;6.60;99.90;;;;;;5030179;28;20040;-62
2022/04/09 09:46:54;;;;;;;0.30;0.30;;;6.70;99.90;;;;;;5029664;28;20033;-62
2022/04/09 09:49:25;;;;;;;1.40;1.35;;;6.70;99.90;;;;;;5029843;28;20112;-62
2022/04/09 09:52:07;;;;;;;0.00;0.00;;;6.80;99.90;;;;;;5012892;28;20108;-63
2022/04/09 09:54:32;;;;;;;0.00;0.00;;;6.80;99.90;;;;;;5012473;28;20042;-63
2022/04/09 09:57:00;;;;;;;0.10;0.10;;;6.90;99.90;;;;;;5029709;28;20087;-62
2022/04/09 09:59:28;;;;;;;0.10;0.10;;;6.90;99.90;;;;;;5028747;28;20112;-62
2022/04/09 10:01:55;;;;;;;0.45;0.45;;;7.10;99.90;;;;;;5032426;28;20029;-62
2022/04/09 10:04:22;;;;;;;0.10;0.10;;;7.50;99.90;;;;;;5029670;28;20499;-61
2022/04/09 10:06:47;;;;;;;0.00;0.00;;;7.40;99.90;;;;;;5038400;28;20039;-61
2022/04/09 10:09:14;;;;;;;0.00;0.00;;;7.40;99.90;;;;;;5026490;28;20033;-62
2022/04/09 10:11:49;;;;;;;0.00;0.00;;;7.60;99.90;;;;;;5040946;28;20035;-61
2022/04/09 10:14:23;;;;;;;0.00;0.00;;;7.60;99.90;;;;;;5032036;28;20120;-61
2022/04/09 10:16:53;;;;;;;0.28;0.28;;;7.70;99.90;;;;;;5049791;28;20021;-61
2022/04/09 10:19:22;;;;;;;1.85;1.75;;;7.50;99.90;;;;;;5049971;28;20028;-61
2022/04/09 10:21:51;;;;;;;0.00;0.00;;;7.60;99.90;;;;;;5032923;28;20478;-62
2022/04/09 10:24:22;;;;;;;0.38;0.38;;;7.60;99.90;;;;;;5050054;28;20033;-62
2022/04/09 10:26:48;;;;;;;0.30;0.30;;;7.70;99.90;;;;;;5049728;28;20125;-61
2022/04/09 10:29:14;;;;;;;0.47;0.47;;;7.90;99.90;;;;;;5032462;28;20131;-62
2022/04/09 10:31:41;;;;;;;0.00;0.00;;;7.90;99.90;;;;;;5049355;28;20029;-60
2022/04/09 10:34:10;;;;;;;1.52;1.48;;;7.70;99.90;;;;;;5012612;28;20061;-61
2022/04/09 10:36:45;;;;;;;0.10;0.10;;;7.80;99.90;;;;;;5011770;28;20064;-62
2022/04/09 10:39:42;;;;;;;0.10;0.10;;;7.90;99.90;;;;;;5030134;28;20040;-61
2022/04/09 10:42:10;;;;;;;0.10;0.10;;;8.10;99.90;;;;;;5030344;28;20511;-62
2022/04/09 10:44:53;;;;;;;0.20;0.20;;;8.20;99.90;;;;;;5016272;28;20397;-62
2022/04/09 10:47:19;;;;;;;0.00;0.00;;;8.00;99.90;;;;;;5016653;28;20094;-61
2022/04/09 10:50:05;;;;;;;0.75;0.75;;;8.10;99.90;;;;;;5016523;28;20336;-61
2022/04/09 10:52:33;;;;;;;0.10;0.10;;;8.20;99.90;;;;;;5033728;28;20037;-63
2022/04/09 10:55:06;;;;;;;0.00;0.00;;;8.40;99.90;;;;;;5016285;28;20041;-62
2022/04/09 10:57:48;;;;;;;0.50;0.50;;;8.50;99.90;;;;;;5015725;28;20124;-60
2022/04/09 11:00:22;;;;;;;0.68;0.68;;;8.30;99.90;;;;;;5015986;28;20021;-61
2022/04/09 11:03:28;;;;;;;0.55;0.55;;;8.30;99.90;;;;;;5043605;28;20029;-62
2022/04/09 11:06:43;;;;;;;0.00;0.00;;;8.40;99.90;;;;;;5053558;28;20439;-60
2022/04/09 11:09:09;;;;;;;0.20;0.20;;;8.60;99.90;;;;;;5035554;28;20497;-60
2022/04/09 11:11:37;;;;;;;0.00;0.00;;;8.50;99.90;;;;;;5050545;28;20068;-61
2022/04/09 11:14:03;;;;;;;0.30;0.30;;;8.60;99.90;;;;;;5024834;28;20060;-60
2022/04/09 11:16:34;;;;;;;0.75;0.73;;;8.80;99.90;;;;;;5042135;28;20466;-61
2022/04/09 11:19:02;;;;;;;0.32;0.32;;;8.80;99.90;;;;;;5033468;28;20626;-61
2022/04/09 11:21:28;;;;;;;0.05;0.05;;;8.90;99.90;;;;;;5032519;28;20041;-62
2022/04/09 11:24:08;;;;;;;0.00;0.00;;;8.90;99.90;;;;;;5033240;28;20030;-61
2022/04/09 11:26:33;;;;;;;0.00;0.00;;;9.00;99.90;;;;;;5038050;28;20037;-61
2022/04/09 11:29:11;;;;;;;0.00;0.00;;;9.00;99.90;;;;;;5034942;28;20869;-62
2022/04/09 11:31:47;;;;;;;0.00;0.00;;;9.20;99.90;;;;;;5053390;28;20088;-61
2022/04/09 11:34:13;;;;;;;5.05;1.95;;;9.40;99.90;;;;;;5042042;28;20120;-61
2022/04/09 11:36:39;;;;;;;0.10;0.10;;;9.40;99.90;;;;;;5048562;28;20380;-61
2022/04/09 11:39:05;;;;;;;0.03;0.03;;;9.20;99.90;;;;;;5052750;28;20029;-61
2022/04/09 11:41:30;;;;;;;0.00;0.00;;;9.20;99.90;;;;;;5053024;28;20025;-61
2022/04/09 11:43:56;;;;;;;0.00;0.00;;;9.10;99.90;;;;;;5052640;28;20098;-61
2022/04/09 11:46:22;;;;;;;0.57;0.55;;;8.80;99.90;;;;;;5052517;28;20029;-61
2022/04/09 11:49:00;;;;;;;0.10;0.10;;;8.70;99.90;;;;;;5052207;28;20029;-61
2022/04/09 11:51:26;;;;;;;0.00;0.00;;;9.10;99.90;;;;;;5052855;28;20037;-61
2022/04/09 11:53:52;;;;;;;0.00;0.00;;;9.20;99.90;;;;;;5051790;28;20036;-61
2022/04/09 11:56:18;;;;;;;2.17;1.35;;;9.40;99.90;;;;;;5045298;28;20090;-61
2022/04/09 11:58:43;;;;;;;0.10;0.10;;;9.70;99.80;;;;;;5048007;28;20524;-61
2022/04/09 12:01:09;;;;;;;0.00;0.00;;;9.80;99.90;;;;;;5018457;28;20506;-61
2022/04/09 12:03:39;;;;;;;0.00;0.00;;;9.50;99.00;;;;;;5034478;28;20132;-61
2022/04/09 12:06:06;;;;;;;1.75;0.65;;;9.50;99.90;;;;;;5034624;28;20041;-61
2022/04/09 12:08:36;;;;;;;0.00;0.00;;;9.90;99.90;;;;;;5051898;28;20500;-61
2022/04/09 12:11:11;;;;;;;0.00;0.00;;;10.00;99.90;;;;;;5035118;28;20047;-61
2022/04/09 12:13:38;;;;;;;0.10;0.10;;;9.90;99.90;;;;;;5013625;28;20053;-61
2022/04/09 12:16:10;;;;;;;0.00;0.00;;;9.90;99.90;;;;;;5033521;28;20025;-62
2022/04/09 12:18:36;;;;;;;0.10;0.10;;;9.80;99.90;;;;;;5052019;28;20044;-62
2022/04/09 12:21:25;;;;;;;0.08;0.08;;;10.00;98.90;;;;;;5051972;28;20021;-61
2022/04/09 12:24:06;;;;;;;0.00;0.00;;;10.10;98.80;;;;;;5035062;28;20029;-62
2022/04/09 12:26:43;;;;;;;0.00;0.00;;;10.00;98.10;;;;;;5051625;28;20025;-62
2022/04/09 12:29:23;;;;;;;0.20;0.20;;;10.30;96.00;;;;;;5029402;28;20043;-61
2022/04/09 12:31:51;;;;;;;0.00;0.00;;;10.60;98.40;;;;;;5040106;28;20097;-61
2022/04/09 12:34:21;;;;;;;0.00;0.00;;;10.90;97.70;;;;;;5051852;28;20108;-62
2022/04/09 12:37:05;;;;;;;0.00;0.00;;;10.90;95.50;;;;;;5033470;28;20025;-64
2022/04/09 12:39:33;;;;;;;0.00;0.00;;;11.30;96.40;;;;;;5048822;28;20047;-64
2022/04/09 12:42:00;;;;;;;0.10;0.10;;;10.40;96.60;;;;;;5034110;28;20099;-61
2022/04/09 12:44:28;;;;;;;0.00;0.00;;;10.10;99.90;;;;;;5050932;28;20132;-62
2022/04/09 12:46:55;;;;;;;0.40;0.28;;;10.10;99.90;;;;;;5051184;28;20107;-62
2022/04/09 12:49:29;;;;;;;0.00;0.00;;;10.20;99.90;;;;;;5033250;28;20039;-62
2022/04/09 12:51:57;;;;;;;1.55;1.20;;;10.30;99.90;;;;;;5050551;28;20043;-62
2022/04/09 12:54:23;;;;;;;0.75;0.75;;;10.40;99.90;;;;;;5031418;28;20033;-62
2022/04/09 12:56:50;;;;;;;0.00;0.00;;;10.80;99.90;;;;;;4993201;23;20046;-61
2022/04/09 12:59:17;;;;;;;2.63;0.50;;;11.30;99.90;;;;;;5009786;28;20036;-61
2022/04/09 13:01:44;;;;;;;11.70;0.80;;;11.30;99.30;;;;;;5008590;28;20030;-61